sensor_id;sensor_type;location;lat;lon;timestamp;noise_LAeq;noise_LA_min;noise_LA_max;noise_LA01;noise_LA95
76767;Laerm;65707;52.362;6.588;2024-02-21T00:01:23;41.90;34.19;56.83;;
76767;Laerm;65707;52.362;6.588;2024-02-21T00:03:50;50.61;34.09;75.78;;
76767;Laerm;65707;52.362;6.588;2024-02-21T00:06:17;44.87;33.77;68.17;;
76767;Laerm;65707;52.362;6.588;2024-02-21T00:08:44;40.62;33.60;57.42;;
76767;Laerm;65707;52.362;6.588;2024-02-21T00:11:10;42.30;34.59;65.06;;
76767;Laerm;65707;52.362;6.588;2024-02-21T00:13:38;44.69;33.59;61.38;;
76767;Laerm;65707;52.362;6.588;2024-02-21T00:16:06;50.05;35.04;75.07;;
76767;Laerm;65707;52.362;6.588;2024-02-21T00:18:32;72.54;33.63;91.09;;
76767;Laerm;65707;52.362;6.588;2024-02-21T00:20:59;44.11;32.48;67.17;;
76767;Laerm;65707;52.362;6.588;2024-02-21T00:23:27;44.25;35.79;63.76;;
76767;Laerm;65707;52.362;6.588;2024-02-21T00:25:54;40.78;35.06;61.10;;
76767;Laerm;65707;52.362;6.588;2024-02-21T00:28:21;45.18;35.94;69.36;;
76767;Laerm;65707;52.362;6.588;2024-02-21T00:30:49;40.16;34.04;55.43;;
76767;Laerm;65707;52.362;6.588;2024-02-21T00:33:18;40.11;34.19;56.94;;
76767;Laerm;65707;52.362;6.588;2024-02-21T00:35:45;42.32;34.39;63.53;;
76767;Laerm;65707;52.362;6.588;2024-02-21T00:38:12;45.95;34.08;69.09;;
76767;Laerm;65707;52.362;6.588;2024-02-21T00:40:39;43.01;33.54;64.64;;
76767;Laerm;65707;52.362;6.588;2024-02-21T00:43:05;39.80;33.34;58.35;;
76767;Laerm;65707;52.362;6.588;2024-02-21T00:45:32;40.11;33.33;62.38;;
76767;Laerm;65707;52.362;6.588;2024-02-21T00:48:00;43.32;33.70;64.29;;
76767;Laerm;65707;52.362;6.588;2024-02-21T00:50:26;46.04;32.86;74.23;;
76767;Laerm;65707;52.362;6.588;2024-02-21T00:52:53;45.79;35.10;70.27;;
76767;Laerm;65707;52.362;6.588;2024-02-21T00:55:20;42.01;33.52;62.77;;
76767;Laerm;65707;52.362;6.588;2024-02-21T00:57:47;38.54;33.28;50.05;;
76767;Laerm;65707;52.362;6.588;2024-02-21T01:00:14;39.44;32.88;56.62;;
76767;Laerm;65707;52.362;6.588;2024-02-21T01:02:41;39.43;34.43;43.76;;
76767;Laerm;65707;52.362;6.588;2024-02-21T01:05:09;40.86;33.17;65.19;;
76767;Laerm;65707;52.362;6.588;2024-02-21T01:07:36;38.79;33.24;51.05;;
76767;Laerm;65707;52.362;6.588;2024-02-21T01:10:03;44.55;33.07;69.68;;
76767;Laerm;65707;52.362;6.588;2024-02-21T01:12:30;47.04;33.09;69.45;;
76767;Laerm;65707;52.362;6.588;2024-02-21T01:14:57;47.69;33.80;70.15;;
76767;Laerm;65707;52.362;6.588;2024-02-21T01:17:23;71.86;35.08;87.63;;
76767;Laerm;65707;52.362;6.588;2024-02-21T01:19:49;72.05;37.11;85.80;;
76767;Laerm;65707;52.362;6.588;2024-02-21T01:22:17;43.34;34.12;70.83;;
76767;Laerm;65707;52.362;6.588;2024-02-21T01:24:44;53.15;33.35;78.23;;
76767;Laerm;65707;52.362;6.588;2024-02-21T01:27:10;44.05;33.35;63.77;;
76767;Laerm;65707;52.362;6.588;2024-02-21T01:29:37;46.16;33.34;69.07;;
76767;Laerm;65707;52.362;6.588;2024-02-21T01:32:05;48.51;33.25;70.96;;
76767;Laerm;65707;52.362;6.588;2024-02-21T01:34:31;42.45;33.92;64.48;;
76767;Laerm;65707;52.362;6.588;2024-02-21T01:36:58;42.07;33.92;61.33;;
76767;Laerm;65707;52.362;6.588;2024-02-21T01:39:30;72.25;36.56;86.27;;
76767;Laerm;65707;52.362;6.588;2024-02-21T01:41:57;44.93;33.57;64.75;;
76767;Laerm;65707;52.362;6.588;2024-02-21T01:44:25;45.03;34.90;66.92;;
76767;Laerm;65707;52.362;6.588;2024-02-21T01:46:52;47.62;33.74;72.72;;
76767;Laerm;65707;52.362;6.588;2024-02-21T01:49:20;44.14;32.56;68.56;;
76767;Laerm;65707;52.362;6.588;2024-02-21T01:51:48;39.97;33.20;59.13;;
76767;Laerm;65707;52.362;6.588;2024-02-21T01:54:17;50.00;33.47;76.37;;
76767;Laerm;65707;52.362;6.588;2024-02-21T01:56:47;50.54;34.22;75.20;;
76767;Laerm;65707;52.362;6.588;2024-02-21T01:59:16;52.76;33.64;76.79;;
76767;Laerm;65707;52.362;6.588;2024-02-21T02:01:44;47.35;34.07;72.17;;
76767;Laerm;65707;52.362;6.588;2024-02-21T02:04:12;68.84;33.93;89.13;;
76767;Laerm;65707;52.362;6.588;2024-02-21T02:06:39;42.66;33.66;62.81;;
76767;Laerm;65707;52.362;6.588;2024-02-21T02:09:07;41.39;33.98;61.63;;
76767;Laerm;65707;52.362;6.588;2024-02-21T02:11:34;43.38;33.84;65.41;;
76767;Laerm;65707;52.362;6.588;2024-02-21T02:14:02;43.40;33.43;64.84;;
76767;Laerm;65707;52.362;6.588;2024-02-21T02:16:28;50.34;33.52;72.60;;
76767;Laerm;65707;52.362;6.588;2024-02-21T02:18:55;47.51;33.74;72.84;;
76767;Laerm;65707;52.362;6.588;2024-02-21T02:21:29;39.26;33.30;52.97;;
76767;Laerm;65707;52.362;6.588;2024-02-21T02:23:58;45.49;32.67;70.27;;
76767;Laerm;65707;52.362;6.588;2024-02-21T02:26:25;45.62;33.57;67.63;;
76767;Laerm;65707;52.362;6.588;2024-02-21T02:28:52;45.41;34.28;68.84;;
76767;Laerm;65707;52.362;6.588;2024-02-21T02:31:19;40.37;34.26;57.07;;
76767;Laerm;65707;52.362;6.588;2024-02-21T02:33:46;41.28;32.70;60.52;;
76767;Laerm;65707;52.362;6.588;2024-02-21T02:36:13;48.34;34.55;69.94;;
76767;Laerm;65707;52.362;6.588;2024-02-21T02:38:40;43.38;33.44;65.97;;
76767;Laerm;65707;52.362;6.588;2024-02-21T02:41:08;39.89;33.22;56.75;;
76767;Laerm;65707;52.362;6.588;2024-02-21T02:43:34;44.79;32.71;70.66;;
76767;Laerm;65707;52.362;6.588;2024-02-21T02:46:02;41.65;34.27;61.68;;
76767;Laerm;65707;52.362;6.588;2024-02-21T02:48:29;42.31;35.10;61.84;;
76767;Laerm;65707;52.362;6.588;2024-02-21T02:50:55;39.65;32.82;60.72;;
76767;Laerm;65707;52.362;6.588;2024-02-21T02:53:22;40.06;33.58;59.52;;
76767;Laerm;65707;52.362;6.588;2024-02-21T02:55:49;41.85;32.11;65.54;;
76767;Laerm;65707;52.362;6.588;2024-02-21T02:58:17;43.12;32.79;67.69;;
76767;Laerm;65707;52.362;6.588;2024-02-21T03:00:44;40.76;31.52;58.85;;
76767;Laerm;65707;52.362;6.588;2024-02-21T03:03:10;40.41;32.74;65.18;;
76767;Laerm;65707;52.362;6.588;2024-02-21T03:05:37;73.73;34.80;86.61;;
76767;Laerm;65707;52.362;6.588;2024-02-21T03:08:04;42.74;34.38;65.95;;
76767;Laerm;65707;52.362;6.588;2024-02-21T03:10:32;42.17;34.54;63.18;;
76767;Laerm;65707;52.362;6.588;2024-02-21T03:12:59;42.12;34.15;64.57;;
76767;Laerm;65707;52.362;6.588;2024-02-21T03:15:27;44.65;34.74;67.50;;
76767;Laerm;65707;52.362;6.588;2024-02-21T03:17:54;47.38;34.98;70.03;;
76767;Laerm;65707;52.362;6.588;2024-02-21T03:20:20;47.51;33.92;70.84;;
76767;Laerm;65707;52.362;6.588;2024-02-21T03:22:47;42.18;34.13;61.96;;
76767;Laerm;65707;52.362;6.588;2024-02-21T03:25:14;39.86;34.98;56.47;;
76767;Laerm;65707;52.362;6.588;2024-02-21T03:27:41;43.23;35.60;65.30;;
76767;Laerm;65707;52.362;6.588;2024-02-21T03:30:09;43.14;35.20;64.04;;
76767;Laerm;65707;52.362;6.588;2024-02-21T03:32:37;41.36;35.76;61.28;;
76767;Laerm;65707;52.362;6.588;2024-02-21T03:35:05;40.88;34.71;62.74;;
76767;Laerm;65707;52.362;6.588;2024-02-21T03:37:32;41.04;35.59;59.70;;
76767;Laerm;65707;52.362;6.588;2024-02-21T03:39:58;41.86;34.15;60.78;;
76767;Laerm;65707;52.362;6.588;2024-02-21T03:42:25;41.15;35.00;52.43;;
76767;Laerm;65707;52.362;6.588;2024-02-21T03:44:54;42.42;36.14;59.45;;
76767;Laerm;65707;52.362;6.588;2024-02-21T03:47:21;42.25;35.83;57.76;;
76767;Laerm;65707;52.362;6.588;2024-02-21T03:49:49;43.42;36.25;60.09;;
76767;Laerm;65707;52.362;6.588;2024-02-21T03:52:16;72.10;39.19;85.05;;
76767;Laerm;65707;52.362;6.588;2024-02-21T03:54:43;40.77;36.27;52.49;;
76767;Laerm;65707;52.362;6.588;2024-02-21T03:57:10;47.83;35.35;69.70;;
76767;Laerm;65707;52.362;6.588;2024-02-21T03:59:36;52.16;36.40;76.21;;
76767;Laerm;65707;52.362;6.588;2024-02-21T04:02:04;42.34;35.57;56.82;;
76767;Laerm;65707;52.362;6.588;2024-02-21T04:04:34;48.52;37.41;72.11;;
76767;Laerm;65707;52.362;6.588;2024-02-21T04:07:02;42.91;37.76;55.36;;
76767;Laerm;65707;52.362;6.588;2024-02-21T04:09:32;61.14;38.30;84.02;;
76767;Laerm;65707;52.362;6.588;2024-02-21T04:11:59;43.80;38.55;58.60;;
76767;Laerm;65707;52.362;6.588;2024-02-21T04:14:26;72.92;38.31;87.17;;
76767;Laerm;65707;52.362;6.588;2024-02-21T04:16:52;44.56;38.44;64.12;;
76767;Laerm;65707;52.362;6.588;2024-02-21T04:19:19;41.86;38.47;48.61;;
76767;Laerm;65707;52.362;6.588;2024-02-21T04:21:46;47.34;37.82;71.11;;
76767;Laerm;65707;52.362;6.588;2024-02-21T04:24:14;46.37;38.44;65.74;;
76767;Laerm;65707;52.362;6.588;2024-02-21T04:26:40;43.58;38.67;61.27;;
76767;Laerm;65707;52.362;6.588;2024-02-21T04:29:07;47.77;38.37;64.17;;
76767;Laerm;65707;52.362;6.588;2024-02-21T04:31:33;53.70;39.56;77.95;;
76767;Laerm;65707;52.362;6.588;2024-02-21T04:34:00;47.52;38.48;70.38;;
76767;Laerm;65707;52.362;6.588;2024-02-21T04:36:28;44.89;39.44;64.49;;
76767;Laerm;65707;52.362;6.588;2024-02-21T04:38:54;57.49;39.40;77.04;;
76767;Laerm;65707;52.362;6.588;2024-02-21T04:41:22;63.96;39.70;81.00;;
76767;Laerm;65707;52.362;6.588;2024-02-21T04:43:49;46.79;39.63;65.27;;
76767;Laerm;65707;52.362;6.588;2024-02-21T04:46:16;45.62;39.16;61.34;;
76767;Laerm;65707;52.362;6.588;2024-02-21T04:48:43;50.05;39.67;73.92;;
76767;Laerm;65707;52.362;6.588;2024-02-21T04:51:09;44.62;39.60;58.03;;
76767;Laerm;65707;52.362;6.588;2024-02-21T04:53:36;57.73;39.88;78.30;;
76767;Laerm;65707;52.362;6.588;2024-02-21T04:56:03;44.92;39.66;59.07;;
76767;Laerm;65707;52.362;6.588;2024-02-21T04:58:31;49.38;40.35;69.37;;
76767;Laerm;65707;52.362;6.588;2024-02-21T05:00:58;57.67;40.93;70.98;;
76767;Laerm;65707;52.362;6.588;2024-02-21T05:03:25;52.56;41.08;78.23;;
76767;Laerm;65707;52.362;6.588;2024-02-21T05:05:51;48.37;40.41;70.94;;
76767;Laerm;65707;52.362;6.588;2024-02-21T05:08:18;58.78;40.53;78.76;;
76767;Laerm;65707;52.362;6.588;2024-02-21T05:10:45;63.98;42.32;82.85;;
76767;Laerm;65707;52.362;6.588;2024-02-21T05:13:11;52.87;40.92;73.30;;
76767;Laerm;65707;52.362;6.588;2024-02-21T05:15:39;56.68;41.51;81.85;;
76767;Laerm;65707;52.362;6.588;2024-02-21T05:18:06;50.73;41.79;73.29;;
76767;Laerm;65707;52.362;6.588;2024-02-21T05:20:33;55.25;42.26;78.05;;
76767;Laerm;65707;52.362;6.588;2024-02-21T05:22:59;56.29;42.11;83.38;;
76767;Laerm;65707;52.362;6.588;2024-02-21T05:25:26;55.93;41.97;73.40;;
76767;Laerm;65707;52.362;6.588;2024-02-21T05:27:53;52.05;42.50;75.40;;
76767;Laerm;65707;52.362;6.588;2024-02-21T05:30:21;58.68;42.55;76.89;;
76767;Laerm;65707;52.362;6.588;2024-02-21T05:32:49;56.29;43.96;78.79;;
76767;Laerm;65707;52.362;6.588;2024-02-21T05:35:15;50.86;43.03;69.93;;
76767;Laerm;65707;52.362;6.588;2024-02-21T05:37:42;57.25;43.33;76.83;;
76767;Laerm;65707;52.362;6.588;2024-02-21T05:40:11;67.64;43.94;83.60;;
76767;Laerm;65707;52.362;6.588;2024-02-21T05:42:38;48.87;43.64;62.86;;
76767;Laerm;65707;52.362;6.588;2024-02-21T05:45:06;48.36;43.81;62.17;;
76767;Laerm;65707;52.362;6.588;2024-02-21T05:47:32;49.98;43.72;66.87;;
76767;Laerm;65707;52.362;6.588;2024-02-21T05:50:01;61.60;44.05;82.81;;
76767;Laerm;65707;52.362;6.588;2024-02-21T05:52:27;57.36;42.76;77.83;;
76767;Laerm;65707;52.362;6.588;2024-02-21T05:54:54;56.13;44.23;75.97;;
76767;Laerm;65707;52.362;6.588;2024-02-21T05:57:21;56.40;44.24;72.05;;
76767;Laerm;65707;52.362;6.588;2024-02-21T05:59:47;58.79;43.40;77.87;;
76767;Laerm;65707;52.362;6.588;2024-02-21T06:02:14;54.83;43.73;80.54;;
76767;Laerm;65707;52.362;6.588;2024-02-21T06:04:42;49.72;43.93;63.29;;
76767;Laerm;65707;52.362;6.588;2024-02-21T06:07:11;57.88;44.16;76.29;;
76767;Laerm;65707;52.362;6.588;2024-02-21T06:09:37;66.83;44.29;83.12;;
76767;Laerm;65707;52.362;6.588;2024-02-21T06:12:04;65.05;44.04;84.41;;
76767;Laerm;65707;52.362;6.588;2024-02-21T06:14:31;54.98;44.16;79.25;;
76767;Laerm;65707;52.362;6.588;2024-02-21T06:16:58;62.26;43.69;81.41;;
76767;Laerm;65707;52.362;6.588;2024-02-21T06:19:25;52.82;44.24;74.96;;
76767;Laerm;65707;52.362;6.588;2024-02-21T06:21:51;64.89;44.52;85.50;;
76767;Laerm;65707;52.362;6.588;2024-02-21T06:24:19;57.48;43.09;79.33;;
76767;Laerm;65707;52.362;6.588;2024-02-21T06:26:46;50.67;43.99;65.52;;
76767;Laerm;65707;52.362;6.588;2024-02-21T06:29:12;55.69;44.72;74.16;;
76767;Laerm;65707;52.362;6.588;2024-02-21T06:31:40;58.57;45.24;77.52;;
76767;Laerm;65707;52.362;6.588;2024-02-21T06:34:06;50.49;45.09;69.78;;
76767;Laerm;65707;52.362;6.588;2024-02-21T06:36:33;49.40;45.28;60.88;;
76767;Laerm;65707;52.362;6.588;2024-02-21T06:39:00;66.25;45.12;82.58;;
76767;Laerm;65707;52.362;6.588;2024-02-21T06:41:28;62.52;45.45;80.18;;
76767;Laerm;65707;52.362;6.588;2024-02-21T06:43:55;57.13;45.36;77.40;;
76767;Laerm;65707;52.362;6.588;2024-02-21T06:46:24;50.95;45.14;72.87;;
76767;Laerm;65707;52.362;6.588;2024-02-21T06:48:51;51.86;44.68;71.58;;
76767;Laerm;65707;52.362;6.588;2024-02-21T06:51:18;61.28;44.86;83.15;;
76767;Laerm;65707;52.362;6.588;2024-02-21T06:53:44;57.29;45.31;77.36;;
76767;Laerm;65707;52.362;6.588;2024-02-21T06:56:11;57.98;45.97;75.59;;
76767;Laerm;65707;52.362;6.588;2024-02-21T06:58:39;60.16;46.11;80.67;;
76767;Laerm;65707;52.362;6.588;2024-02-21T07:01:06;55.42;45.57;72.34;;
76767;Laerm;65707;52.362;6.588;2024-02-21T07:03:33;48.67;43.80;60.71;;
76767;Laerm;65707;52.362;6.588;2024-02-21T07:06:00;56.09;43.77;76.70;;
76767;Laerm;65707;52.362;6.588;2024-02-21T07:08:27;59.60;44.53;77.24;;
76767;Laerm;65707;52.362;6.588;2024-02-21T07:10:53;64.15;44.11;80.61;;
76767;Laerm;65707;52.362;6.588;2024-02-21T07:13:20;51.58;44.75;66.83;;
76767;Laerm;65707;52.362;6.588;2024-02-21T07:15:49;50.92;45.35;65.28;;
76767;Laerm;65707;52.362;6.588;2024-02-21T07:18:16;53.02;45.31;73.78;;
76767;Laerm;65707;52.362;6.588;2024-02-21T07:20:42;51.67;45.48;70.31;;
76767;Laerm;65707;52.362;6.588;2024-02-21T07:23:09;62.52;44.57;83.55;;
76767;Laerm;65707;52.362;6.588;2024-02-21T07:25:36;66.67;45.66;82.81;;
76767;Laerm;65707;52.362;6.588;2024-02-21T07:28:03;56.03;45.72;76.12;;
76767;Laerm;65707;52.362;6.588;2024-02-21T07:30:30;58.34;45.46;75.55;;
76767;Laerm;65707;52.362;6.588;2024-02-21T07:32:58;50.80;44.70;67.94;;
76767;Laerm;65707;52.362;6.588;2024-02-21T07:35:25;54.36;43.83;75.05;;
76767;Laerm;65707;52.362;6.588;2024-02-21T07:37:51;60.44;45.28;79.34;;
76767;Laerm;65707;52.362;6.588;2024-02-21T07:40:18;62.17;43.49;82.71;;
76767;Laerm;65707;52.362;6.588;2024-02-21T07:42:45;69.88;45.07;86.12;;
76767;Laerm;65707;52.362;6.588;2024-02-21T07:45:12;71.67;45.47;86.01;;
76767;Laerm;65707;52.362;6.588;2024-02-21T07:47:38;51.68;43.83;71.17;;
76767;Laerm;65707;52.362;6.588;2024-02-21T07:50:08;62.17;45.23;82.58;;
76767;Laerm;65707;52.362;6.588;2024-02-21T07:52:34;57.93;43.64;81.38;;
76767;Laerm;65707;52.362;6.588;2024-02-21T07:55:03;57.98;45.18;78.24;;
76767;Laerm;65707;52.362;6.588;2024-02-21T07:57:29;53.10;44.40;74.63;;
76767;Laerm;65707;52.362;6.588;2024-02-21T07:59:56;59.18;44.25;75.64;;
76767;Laerm;65707;52.362;6.588;2024-02-21T08:02:23;52.44;45.16;73.58;;
76767;Laerm;65707;52.362;6.588;2024-02-21T08:04:49;53.16;46.06;72.91;;
76767;Laerm;65707;52.362;6.588;2024-02-21T08:07:17;58.25;45.91;77.62;;
76767;Laerm;65707;52.362;6.588;2024-02-21T08:09:44;64.34;45.54;83.83;;
76767;Laerm;65707;52.362;6.588;2024-02-21T08:12:11;51.50;45.76;68.57;;
76767;Laerm;65707;52.362;6.588;2024-02-21T08:14:37;53.50;45.14;78.86;;
76767;Laerm;65707;52.362;6.588;2024-02-21T08:17:04;54.18;44.66;74.93;;
76767;Laerm;65707;52.362;6.588;2024-02-21T08:19:31;60.54;45.68;83.25;;
76767;Laerm;65707;52.362;6.588;2024-02-21T08:21:57;59.13;45.27;82.27;;
76767;Laerm;65707;52.362;6.588;2024-02-21T08:24:25;63.19;43.58;90.76;;
76767;Laerm;65707;52.362;6.588;2024-02-21T08:26:52;51.65;43.87;68.89;;
76767;Laerm;65707;52.362;6.588;2024-02-21T08:29:18;58.02;44.32;77.74;;
76767;Laerm;65707;52.362;6.588;2024-02-21T08:31:45;52.42;43.71;69.24;;
76767;Laerm;65707;52.362;6.588;2024-02-21T08:34:12;53.03;43.93;76.26;;
76767;Laerm;65707;52.362;6.588;2024-02-21T08:36:39;58.87;43.88;83.28;;
76767;Laerm;65707;52.362;6.588;2024-02-21T08:39:05;55.64;45.06;70.90;;
76767;Laerm;65707;52.362;6.588;2024-02-21T08:41:34;61.92;44.77;80.12;;
76767;Laerm;65707;52.362;6.588;2024-02-21T08:44:01;53.01;44.09;72.79;;
76767;Laerm;65707;52.362;6.588;2024-02-21T08:46:28;53.68;43.62;77.57;;
76767;Laerm;65707;52.362;6.588;2024-02-21T08:48:55;59.70;44.56;84.47;;
76767;Laerm;65707;52.362;6.588;2024-02-21T08:51:21;64.86;44.81;82.52;;
76767;Laerm;65707;52.362;6.588;2024-02-21T08:53:48;58.06;44.79;79.43;;
76767;Laerm;65707;52.362;6.588;2024-02-21T08:56:15;59.37;44.49;76.62;;
76767;Laerm;65707;52.362;6.588;2024-02-21T08:58:44;55.65;45.15;78.38;;
76767;Laerm;65707;52.362;6.588;2024-02-21T09:01:11;57.93;44.53;75.53;;
76767;Laerm;65707;52.362;6.588;2024-02-21T09:03:38;55.61;44.74;79.49;;
76767;Laerm;65707;52.362;6.588;2024-02-21T09:06:06;59.30;45.11;79.20;;
76767;Laerm;65707;52.362;6.588;2024-02-21T09:08:33;61.31;45.43;85.49;;
76767;Laerm;65707;52.362;6.588;2024-02-21T09:11:01;61.95;45.09;80.83;;
76767;Laerm;65707;52.362;6.588;2024-02-21T09:13:28;54.97;44.35;80.27;;
76767;Laerm;65707;52.362;6.588;2024-02-21T09:15:56;58.95;44.64;84.63;;
76767;Laerm;65707;52.362;6.588;2024-02-21T09:18:23;52.76;44.15;72.53;;
76767;Laerm;65707;52.362;6.588;2024-02-21T09:20:50;63.46;44.19;82.24;;
76767;Laerm;65707;52.362;6.588;2024-02-21T09:23:17;53.72;44.75;76.15;;
76767;Laerm;65707;52.362;6.588;2024-02-21T09:25:45;58.34;44.99;74.98;;
76767;Laerm;65707;52.362;6.588;2024-02-21T09:28:12;48.91;44.34;67.68;;
76767;Laerm;65707;52.362;6.588;2024-02-21T09:30:39;58.43;44.95;76.27;;
76767;Laerm;65707;52.362;6.588;2024-02-21T09:33:07;67.34;45.03;84.17;;
76767;Laerm;65707;52.362;6.588;2024-02-21T09:35:34;51.20;44.73;71.96;;
76767;Laerm;65707;52.362;6.588;2024-02-21T09:38:01;58.91;44.60;79.11;;
76767;Laerm;65707;52.362;6.588;2024-02-21T09:40:28;60.68;45.26;80.58;;
76767;Laerm;65707;52.362;6.588;2024-02-21T09:43:03;54.17;44.81;77.54;;
76767;Laerm;65707;52.362;6.588;2024-02-21T09:45:33;68.07;44.14;85.70;;
76767;Laerm;65707;52.362;6.588;2024-02-21T09:48:25;68.82;43.81;84.94;;
76767;Laerm;65707;52.362;6.588;2024-02-21T09:50:59;62.69;44.05;80.78;;
76767;Laerm;65707;52.362;6.588;2024-02-21T09:53:27;59.78;45.66;79.30;;
76767;Laerm;65707;52.362;6.588;2024-02-21T09:55:57;59.49;46.18;77.42;;
76767;Laerm;65707;52.362;6.588;2024-02-21T09:58:26;57.29;45.07;80.93;;
76767;Laerm;65707;52.362;6.588;2024-02-21T10:00:53;59.43;46.71;75.45;;
76767;Laerm;65707;52.362;6.588;2024-02-21T10:03:21;51.88;44.89;73.52;;
76767;Laerm;65707;52.362;6.588;2024-02-21T10:05:49;55.38;44.90;77.90;;
76767;Laerm;65707;52.362;6.588;2024-02-21T10:08:16;59.74;47.25;76.95;;
76767;Laerm;65707;52.362;6.588;2024-02-21T10:10:43;62.48;45.80;81.15;;
76767;Laerm;65707;52.362;6.588;2024-02-21T10:13:11;55.35;43.13;76.34;;
76767;Laerm;65707;52.362;6.588;2024-02-21T10:15:37;55.84;43.24;83.49;;
76767;Laerm;65707;52.362;6.588;2024-02-21T10:18:04;72.94;44.62;86.38;;
76767;Laerm;65707;52.362;6.588;2024-02-21T10:20:33;60.42;44.49;83.14;;
76767;Laerm;65707;52.362;6.588;2024-02-21T10:23:01;62.25;45.23;82.50;;
76767;Laerm;65707;52.362;6.588;2024-02-21T10:25:28;64.68;45.90;89.91;;
76767;Laerm;65707;52.362;6.588;2024-02-21T10:27:56;57.84;45.72;81.39;;
76767;Laerm;65707;52.362;6.588;2024-02-21T10:30:23;60.65;45.19;77.55;;
76767;Laerm;65707;52.362;6.588;2024-02-21T10:32:50;55.19;42.99;79.95;;
76767;Laerm;65707;52.362;6.588;2024-02-21T10:35:26;52.03;43.87;70.33;;
76767;Laerm;65707;52.362;6.588;2024-02-21T10:37:55;67.49;44.27;83.70;;
76767;Laerm;65707;52.362;6.588;2024-02-21T10:40:24;63.80;44.62;83.15;;
76767;Laerm;65707;52.362;6.588;2024-02-21T10:42:56;51.00;44.90;62.09;;
76767;Laerm;65707;52.362;6.588;2024-02-21T10:45:30;74.16;45.25;89.11;;
76767;Laerm;65707;52.362;6.588;2024-02-21T10:48:10;54.72;45.18;79.91;;
76767;Laerm;65707;52.362;6.588;2024-02-21T10:50:53;60.28;44.17;82.35;;
76767;Laerm;65707;52.362;6.588;2024-02-21T10:53:44;57.36;44.76;76.67;;
76767;Laerm;65707;52.362;6.588;2024-02-21T10:56:25;59.85;43.23;77.38;;
76767;Laerm;65707;52.362;6.588;2024-02-21T10:58:53;59.49;44.14;79.72;;
76767;Laerm;65707;52.362;6.588;2024-02-21T11:01:21;58.48;44.12;75.35;;
76767;Laerm;65707;52.362;6.588;2024-02-21T11:03:52;57.28;45.52;75.84;;
76767;Laerm;65707;52.362;6.588;2024-02-21T11:06:22;62.97;45.09;83.34;;
76767;Laerm;65707;52.362;6.588;2024-02-21T11:09:02;71.63;45.44;84.14;;
76767;Laerm;65707;52.362;6.588;2024-02-21T11:11:30;66.18;45.70;83.78;;
76767;Laerm;65707;52.362;6.588;2024-02-21T11:14:07;71.42;43.91;84.33;;
76767;Laerm;65707;52.362;6.588;2024-02-21T11:16:39;57.32;43.63;77.38;;
76767;Laerm;65707;52.362;6.588;2024-02-21T11:19:07;65.55;44.04;91.38;;
76767;Laerm;65707;52.362;6.588;2024-02-21T11:21:35;66.66;44.91;85.72;;
76767;Laerm;65707;52.362;6.588;2024-02-21T11:24:05;61.39;46.37;84.70;;
76767;Laerm;65707;52.362;6.588;2024-02-21T11:26:32;60.17;45.50;78.94;;
76767;Laerm;65707;52.362;6.588;2024-02-21T11:29:00;53.27;44.05;74.32;;
76767;Laerm;65707;52.362;6.588;2024-02-21T11:31:38;55.96;44.37;73.35;;
76767;Laerm;65707;52.362;6.588;2024-02-21T11:34:09;62.95;44.93;88.19;;
76767;Laerm;65707;52.362;6.588;2024-02-21T11:36:36;52.80;43.71;74.12;;
76767;Laerm;65707;52.362;6.588;2024-02-21T11:39:19;66.91;46.53;82.63;;
76767;Laerm;65707;52.362;6.588;2024-02-21T11:41:47;62.37;44.38;81.04;;
76767;Laerm;65707;52.362;6.588;2024-02-21T11:44:14;59.11;45.98;81.51;;
76767;Laerm;65707;52.362;6.588;2024-02-21T11:46:41;55.26;44.26;78.63;;
76767;Laerm;65707;52.362;6.588;2024-02-21T11:49:08;56.45;44.72;78.48;;
76767;Laerm;65707;52.362;6.588;2024-02-21T11:51:34;63.07;44.04;82.20;;
76767;Laerm;65707;52.362;6.588;2024-02-21T11:54:01;56.12;44.53;72.09;;
76767;Laerm;65707;52.362;6.588;2024-02-21T11:56:29;60.73;44.61;86.12;;
76767;Laerm;65707;52.362;6.588;2024-02-21T11:58:59;52.54;44.51;73.30;;
76767;Laerm;65707;52.362;6.588;2024-02-21T12:01:25;58.91;44.66;75.27;;
76767;Laerm;65707;52.362;6.588;2024-02-21T12:03:52;50.36;43.93;66.52;;
76767;Laerm;65707;52.362;6.588;2024-02-21T12:06:21;57.94;44.57;75.14;;
76767;Laerm;65707;52.362;6.588;2024-02-21T12:08:47;60.07;43.72;76.42;;
76767;Laerm;65707;52.362;6.588;2024-02-21T12:11:19;61.16;43.66;82.66;;
76767;Laerm;65707;52.362;6.588;2024-02-21T12:13:59;56.98;45.28;80.28;;
76767;Laerm;65707;52.362;6.588;2024-02-21T12:16:27;56.07;44.43;79.42;;
76767;Laerm;65707;52.362;6.588;2024-02-21T12:18:54;54.74;44.40;74.08;;
76767;Laerm;65707;52.362;6.588;2024-02-21T12:21:24;62.39;46.30;81.06;;
76767;Laerm;65707;52.362;6.588;2024-02-21T12:23:53;58.18;45.09;81.72;;
76767;Laerm;65707;52.362;6.588;2024-02-21T12:26:20;56.74;45.24;74.47;;
76767;Laerm;65707;52.362;6.588;2024-02-21T12:28:48;58.11;45.28;75.79;;
76767;Laerm;65707;52.362;6.588;2024-02-21T12:31:15;58.16;45.24;78.06;;
76767;Laerm;65707;52.362;6.588;2024-02-21T12:33:43;53.62;45.19;78.72;;
76767;Laerm;65707;52.362;6.588;2024-02-21T12:36:09;56.44;44.65;79.37;;
76767;Laerm;65707;52.362;6.588;2024-02-21T12:38:36;66.91;44.26;84.91;;
76767;Laerm;65707;52.362;6.588;2024-02-21T12:41:03;64.43;44.85;81.21;;
76767;Laerm;65707;52.362;6.588;2024-02-21T12:43:30;56.56;45.73;74.80;;
76767;Laerm;65707;52.362;6.588;2024-02-21T12:45:58;54.67;45.46;77.78;;
76767;Laerm;65707;52.362;6.588;2024-02-21T12:48:25;73.20;45.70;87.86;;
76767;Laerm;65707;52.362;6.588;2024-02-21T12:50:51;65.17;45.19;83.74;;
76767;Laerm;65707;52.362;6.588;2024-02-21T12:53:19;60.05;45.50;79.42;;
76767;Laerm;65707;52.362;6.588;2024-02-21T12:55:48;58.27;45.07;82.81;;
76767;Laerm;65707;52.362;6.588;2024-02-21T12:58:15;55.06;45.13;75.40;;
76767;Laerm;65707;52.362;6.588;2024-02-21T13:00:41;60.74;45.14;79.62;;
76767;Laerm;65707;52.362;6.588;2024-02-21T13:03:09;53.91;44.93;70.68;;
76767;Laerm;65707;52.362;6.588;2024-02-21T13:05:36;54.90;45.30;77.91;;
76767;Laerm;65707;52.362;6.588;2024-02-21T13:08:05;60.06;46.08;77.28;;
76767;Laerm;65707;52.362;6.588;2024-02-21T13:10:31;63.59;45.55;81.79;;
76767;Laerm;65707;52.362;6.588;2024-02-21T13:12:59;52.68;44.97;73.69;;
76767;Laerm;65707;52.362;6.588;2024-02-21T13:15:26;56.38;47.23;79.23;;
76767;Laerm;65707;52.362;6.588;2024-02-21T13:17:53;51.91;45.75;73.25;;
76767;Laerm;65707;52.362;6.588;2024-02-21T13:20:21;63.27;46.36;83.20;;
76767;Laerm;65707;52.362;6.588;2024-02-21T13:22:48;66.85;46.78;82.69;;
76767;Laerm;65707;52.362;6.588;2024-02-21T13:25:15;58.30;47.15;75.17;;
76767;Laerm;65707;52.362;6.588;2024-02-21T13:27:46;59.36;45.48;80.79;;
76767;Laerm;65707;52.362;6.588;2024-02-21T13:30:14;59.24;45.02;83.31;;
76767;Laerm;65707;52.362;6.588;2024-02-21T13:32:42;54.10;45.69;75.86;;
76767;Laerm;65707;52.362;6.588;2024-02-21T13:35:09;54.57;44.73;78.96;;
76767;Laerm;65707;52.362;6.588;2024-02-21T13:37:38;54.96;45.18;75.36;;
76767;Laerm;65707;52.362;6.588;2024-02-21T13:40:07;64.28;45.73;81.78;;
76767;Laerm;65707;52.362;6.588;2024-02-21T13:42:35;54.96;44.73;77.43;;
76767;Laerm;65707;52.362;6.588;2024-02-21T13:45:03;54.69;46.11;73.62;;
76767;Laerm;65707;52.362;6.588;2024-02-21T13:47:31;53.16;46.97;73.76;;